Ext La Inmaculada, Puerto Rico
Current Conditions -  °F | °C
As of 11:53 PM on Thursday 18 Dec 2014 (Local Time) from TJNR Reporting Station
Overcast Overcast  
Wind Chill: 79°   Ceiling: 4700
Heat Index: 82°   Visibility: 10mi
Dew Point: 69°   Wind: 10mph
Humidity: 72%   Direction: 60°ENE
Pressure: 30.02"   Gusts: NA
Location:  18.1853°N, 65.8667°W
Report Text: TJNR 190353Z AUTO 06009KT 10SM SCT037 BKN047 OVC085 26/21 A3002 RMK AO2 SLP164 T02610206 402890233 $
Loading
Personal Weather Stations






























Interactive Weather Map New forecast layout! Learn more

10-Day Weather Forecast

Advertisements
Track Severe Weather on mobile